sensor_id;sensor_type;location;lat;lon;timestamp;pressure;altitude;pressure_sealevel;temperature;humidity
64362;BME280;50685;53.346;-6.296;2023-02-26T00:00:55;102565.91;;;6.35;56.89
64362;BME280;50685;53.346;-6.296;2023-02-26T00:03:21;102571.22;;;6.36;56.29
64362;BME280;50685;53.346;-6.296;2023-02-26T00:05:48;102573.94;;;6.38;56.61
64362;BME280;50685;53.346;-6.296;2023-02-26T00:08:17;102572.16;;;6.37;57.11
64362;BME280;50685;53.346;-6.296;2023-02-26T00:10:43;102573.94;;;6.38;57.49
64362;BME280;50685;53.346;-6.296;2023-02-26T00:13:09;102572.16;;;6.37;57.85
64362;BME280;50685;53.346;-6.296;2023-02-26T00:18:14;102573.03;;;6.37;57.54
64362;BME280;50685;53.346;-6.296;2023-02-26T00:20:40;102575.63;;;6.36;57.53
64362;BME280;50685;53.346;-6.296;2023-02-26T00:23:08;102580.91;;;6.36;56.82
64362;BME280;50685;53.346;-6.296;2023-02-26T00:25:35;102582.56;;;6.34;55.96
64362;BME280;50685;53.346;-6.296;2023-02-26T00:28:01;102585.16;;;6.32;56.13
64362;BME280;50685;53.346;-6.296;2023-02-26T00:30:30;102580.69;;;6.30;55.43
64362;BME280;50685;53.346;-6.296;2023-02-26T00:33:00;102579.78;;;6.29;55.34
64362;BME280;50685;53.346;-6.296;2023-02-26T00:35:26;102585.84;;;6.26;55.18
64362;BME280;50685;53.346;-6.296;2023-02-26T00:43:03;102579.56;;;6.23;56.54
64362;BME280;50685;53.346;-6.296;2023-02-26T00:45:33;102591.91;;;6.24;57.00
64362;BME280;50685;53.346;-6.296;2023-02-26T00:48:15;102584.84;;;6.23;56.91
64362;BME280;50685;53.346;-6.296;2023-02-26T00:51:14;102589.19;;;6.21;56.67
64362;BME280;50685;53.346;-6.296;2023-02-26T00:53:39;102596.13;;;6.19;56.67
64362;BME280;50685;53.346;-6.296;2023-02-26T00:56:08;102592.59;;;6.18;57.04
64362;BME280;50685;53.346;-6.296;2023-02-26T00:58:34;102587.25;;;6.17;57.59
64362;BME280;50685;53.346;-6.296;2023-02-26T01:00:59;102587.34;;;6.18;58.90
64362;BME280;50685;53.346;-6.296;2023-02-26T01:03:25;102584.69;;;6.18;59.12
64362;BME280;50685;53.346;-6.296;2023-02-26T01:05:50;102597.75;;;6.15;60.83
64362;BME280;50685;53.346;-6.296;2023-02-26T01:08:19;102586.22;;;6.11;61.94
64362;BME280;50685;53.346;-6.296;2023-02-26T01:10:57;102598.53;;;6.13;61.37
64362;BME280;50685;53.346;-6.296;2023-02-26T01:13:25;102594.91;;;6.09;61.15
64362;BME280;50685;53.346;-6.296;2023-02-26T01:15:54;102593.16;;;6.09;61.37
64362;BME280;50685;53.346;-6.296;2023-02-26T01:18:25;102594.88;;;6.07;61.66
64362;BME280;50685;53.346;-6.296;2023-02-26T01:20:55;102601.00;;;6.08;61.59
64362;BME280;50685;53.346;-6.296;2023-02-26T01:23:24;102605.41;;;6.07;62.07
64362;BME280;50685;53.346;-6.296;2023-02-26T01:25:52;102606.28;;;6.08;62.09
64362;BME280;50685;53.346;-6.296;2023-02-26T01:28:21;102601.00;;;6.08;62.66
64362;BME280;50685;53.346;-6.296;2023-02-26T01:30:47;102598.34;;;6.06;63.89
64362;BME280;50685;53.346;-6.296;2023-02-26T01:33:15;102599.22;;;6.07;63.62
64362;BME280;50685;53.346;-6.296;2023-02-26T01:35:53;102599.16;;;6.05;64.42
64362;BME280;50685;53.346;-6.296;2023-02-26T01:46:32;102603.34;;;5.99;61.74
64362;BME280;50685;53.346;-6.296;2023-02-26T01:51:45;102611.75;;;5.90;60.11
64362;BME280;50685;53.346;-6.296;2023-02-26T01:54:16;102596.69;;;5.86;59.75
64362;BME280;50685;53.346;-6.296;2023-02-26T01:56:44;102598.09;;;5.76;59.10
64362;BME280;50685;53.346;-6.296;2023-02-26T01:59:13;102606.69;;;5.70;59.90
64362;BME280;50685;53.346;-6.296;2023-02-26T02:01:43;102610.03;;;5.66;60.43
64362;BME280;50685;53.346;-6.296;2023-02-26T02:44:27;102626.56;;;5.39;59.16
64362;BME280;50685;53.346;-6.296;2023-02-26T02:46:54;102629.31;;;5.42;58.25
64362;BME280;50685;53.346;-6.296;2023-02-26T02:52:12;102635.69;;;5.49;58.37
64362;BME280;50685;53.346;-6.296;2023-02-26T02:54:42;102642.94;;;5.55;57.86
64362;BME280;50685;53.346;-6.296;2023-02-26T02:57:11;102641.38;;;5.60;57.17
64362;BME280;50685;53.346;-6.296;2023-02-26T02:59:47;102646.81;;;5.65;57.03
64362;BME280;50685;53.346;-6.296;2023-02-26T03:04:43;102642.75;;;5.73;58.33
64362;BME280;50685;53.346;-6.296;2023-02-26T03:09:44;102650.78;;;5.77;58.57
64362;BME280;50685;53.346;-6.296;2023-02-26T03:12:10;102642.09;;;5.80;58.33
64362;BME280;50685;53.346;-6.296;2023-02-26T03:14:35;102640.41;;;5.81;58.58
64362;BME280;50685;53.346;-6.296;2023-02-26T03:17:05;102647.50;;;5.83;58.22
64362;BME280;50685;53.346;-6.296;2023-02-26T03:22:30;102651.88;;;5.83;57.42
64362;BME280;50685;53.346;-6.296;2023-02-26T03:25:17;102651.88;;;5.83;56.94
64362;BME280;50685;53.346;-6.296;2023-02-26T03:38:08;102659.94;;;5.63;55.91
64362;BME280;50685;53.346;-6.296;2023-02-26T03:40:44;102662.47;;;5.61;56.09
64362;BME280;50685;53.346;-6.296;2023-02-26T03:45:44;102666.09;;;5.63;55.66
64362;BME280;50685;53.346;-6.296;2023-02-26T03:48:12;102661.88;;;5.69;56.12
64362;BME280;50685;53.346;-6.296;2023-02-26T03:50:41;102671.63;;;5.71;56.30
64362;BME280;50685;53.346;-6.296;2023-02-26T03:53:08;102667.34;;;5.73;57.07
64362;BME280;50685;53.346;-6.296;2023-02-26T03:58:01;102669.22;;;5.77;57.00
64362;BME280;50685;53.346;-6.296;2023-02-26T04:00:26;102659.66;;;5.79;57.07
64362;BME280;50685;53.346;-6.296;2023-02-26T04:03:00;102657.06;;;5.81;57.51
64362;BME280;50685;53.346;-6.296;2023-02-26T04:05:29;102664.09;;;5.81;57.49
64362;BME280;50685;53.346;-6.296;2023-02-26T04:07:57;102664.19;;;5.84;57.59
64362;BME280;50685;53.346;-6.296;2023-02-26T04:10:28;102670.41;;;5.86;57.51
64362;BME280;50685;53.346;-6.296;2023-02-26T04:12:57;102673.19;;;5.89;57.75
64362;BME280;50685;53.346;-6.296;2023-02-26T04:15:23;102674.13;;;5.91;57.59
64362;BME280;50685;53.346;-6.296;2023-02-26T04:17:53;102681.22;;;5.93;58.22
64362;BME280;50685;53.346;-6.296;2023-02-26T04:20:19;102687.41;;;5.94;58.68
64362;BME280;50685;53.346;-6.296;2023-02-26T04:22:47;102692.63;;;5.92;58.74
64362;BME280;50685;53.346;-6.296;2023-02-26T04:25:12;102682.97;;;5.93;58.59
64362;BME280;50685;53.346;-6.296;2023-02-26T04:27:40;102702.28;;;5.93;58.28
64362;BME280;50685;53.346;-6.296;2023-02-26T04:30:05;102692.66;;;5.94;58.09
64362;BME280;50685;53.346;-6.296;2023-02-26T04:32:31;102692.66;;;5.94;57.50
64362;BME280;50685;53.346;-6.296;2023-02-26T04:34:56;102696.16;;;5.93;57.50
64362;BME280;50685;53.346;-6.296;2023-02-26T04:37:22;102696.19;;;5.94;57.40
64362;BME280;50685;53.346;-6.296;2023-02-26T04:39:50;102696.94;;;5.90;57.01
64362;BME280;50685;53.346;-6.296;2023-02-26T04:42:16;102693.47;;;5.91;56.98
64362;BME280;50685;53.346;-6.296;2023-02-26T04:44:43;102699.56;;;5.90;56.60
64362;BME280;50685;53.346;-6.296;2023-02-26T04:47:09;102702.25;;;5.92;56.50
64362;BME280;50685;53.346;-6.296;2023-02-26T04:49:34;102704.00;;;5.91;56.28
64362;BME280;50685;53.346;-6.296;2023-02-26T04:57:10;102703.03;;;5.89;56.84
64362;BME280;50685;53.346;-6.296;2023-02-26T04:59:36;102711.81;;;5.90;57.06
64362;BME280;50685;53.346;-6.296;2023-02-26T05:02:04;102707.41;;;5.89;57.32
64362;BME280;50685;53.346;-6.296;2023-02-26T05:04:29;102705.63;;;5.88;57.27
64362;BME280;50685;53.346;-6.296;2023-02-26T05:06:55;102707.41;;;5.89;56.97
64362;BME280;50685;53.346;-6.296;2023-02-26T05:09:20;102714.28;;;5.85;57.05
64362;BME280;50685;53.346;-6.296;2023-02-26T05:11:47;102709.91;;;5.86;56.40
64362;BME280;50685;53.346;-6.296;2023-02-26T05:14:13;102720.44;;;5.86;56.74
64362;BME280;50685;53.346;-6.296;2023-02-26T05:16:39;102729.31;;;5.88;56.26
64362;BME280;50685;53.346;-6.296;2023-02-26T05:19:05;102721.38;;;5.86;56.25
64362;BME280;50685;53.346;-6.296;2023-02-26T05:28:29;102739.84;;;5.88;55.51
64362;BME280;50685;53.346;-6.296;2023-02-26T05:30:55;102739.06;;;5.90;55.93
64362;BME280;50685;53.346;-6.296;2023-02-26T05:33:21;102740.78;;;5.90;55.84
64362;BME280;50685;53.346;-6.296;2023-02-26T05:35:49;102735.59;;;5.91;55.70
64362;BME280;50685;53.346;-6.296;2023-02-26T05:38:19;102732.88;;;5.90;55.46
64362;BME280;50685;53.346;-6.296;2023-02-26T05:40:44;102728.53;;;5.90;56.02
64362;BME280;50685;53.346;-6.296;2023-02-26T05:43:10;102732.00;;;5.89;55.67
64362;BME280;50685;53.346;-6.296;2023-02-26T05:45:35;102734.69;;;5.91;55.34
64362;BME280;50685;53.346;-6.296;2023-02-26T05:48:01;102750.44;;;5.89;55.19
64362;BME280;50685;53.346;-6.296;2023-02-26T05:50:26;102747.78;;;5.89;55.47
64362;BME280;50685;53.346;-6.296;2023-02-26T05:52:52;102739.06;;;5.90;55.74
64362;BME280;50685;53.346;-6.296;2023-02-26T05:55:17;102752.19;;;5.89;56.13
64362;BME280;50685;53.346;-6.296;2023-02-26T05:57:44;102753.94;;;5.90;56.37
64362;BME280;50685;53.346;-6.296;2023-02-26T06:00:12;102757.44;;;5.89;57.18
64362;BME280;50685;53.346;-6.296;2023-02-26T06:02:38;102759.22;;;5.90;57.17
64362;BME280;50685;53.346;-6.296;2023-02-26T06:05:04;102767.97;;;5.89;57.45
64362;BME280;50685;53.346;-6.296;2023-02-26T06:07:29;102775.00;;;5.90;57.41
64362;BME280;50685;53.346;-6.296;2023-02-26T06:09:55;102763.59;;;5.89;57.27
64362;BME280;50685;53.346;-6.296;2023-02-26T06:12:20;102776.81;;;5.91;57.21
64362;BME280;50685;53.346;-6.296;2023-02-26T06:14:46;102774.13;;;5.89;56.70
64362;BME280;50685;53.346;-6.296;2023-02-26T06:17:14;102770.53;;;5.87;55.85
64362;BME280;50685;53.346;-6.296;2023-02-26T06:19:39;102769.66;;;5.87;55.57
64362;BME280;50685;53.346;-6.296;2023-02-26T06:22:08;102771.41;;;5.86;55.66
64362;BME280;50685;53.346;-6.296;2023-02-26T06:24:34;102774.13;;;5.89;56.12
64362;BME280;50685;53.346;-6.296;2023-02-26T06:29:35;102771.41;;;5.86;56.45
64362;BME280;50685;53.346;-6.296;2023-02-26T06:32:02;102776.66;;;5.86;56.45
64362;BME280;50685;53.346;-6.296;2023-02-26T06:34:27;102775.78;;;5.87;56.29
64362;BME280;50685;53.346;-6.296;2023-02-26T06:36:53;102779.34;;;5.88;55.94
64362;BME280;50685;53.346;-6.296;2023-02-26T06:39:19;102786.47;;;5.90;55.62
64362;BME280;50685;53.346;-6.296;2023-02-26T06:41:44;102792.56;;;5.89;56.20
64362;BME280;50685;53.346;-6.296;2023-02-26T06:44:12;102792.63;;;5.91;56.78
64362;BME280;50685;53.346;-6.296;2023-02-26T06:46:38;102790.91;;;5.91;58.24
64362;BME280;50685;53.346;-6.296;2023-02-26T06:49:03;102791.84;;;5.93;58.63
64362;BME280;50685;53.346;-6.296;2023-02-26T06:51:30;102791.84;;;5.93;59.45
64362;BME280;50685;53.346;-6.296;2023-02-26T06:53:56;102799.72;;;5.93;59.88
64362;BME280;50685;53.346;-6.296;2023-02-26T06:56:21;102805.91;;;5.94;60.27
64362;BME280;50685;53.346;-6.296;2023-02-26T06:58:47;102797.19;;;5.95;59.95
64362;BME280;50685;53.346;-6.296;2023-02-26T07:01:12;102793.63;;;5.94;60.28
64362;BME280;50685;53.346;-6.296;2023-02-26T07:03:40;102792.75;;;5.94;59.87
64362;BME280;50685;53.346;-6.296;2023-02-26T07:06:06;102805.91;;;5.94;59.91
64362;BME280;50685;53.346;-6.296;2023-02-26T07:08:34;102805.00;;;5.93;59.58
64362;BME280;50685;53.346;-6.296;2023-02-26T07:11:04;102819.03;;;5.92;59.36
64362;BME280;50685;53.346;-6.296;2023-02-26T07:13:45;102820.81;;;5.93;59.30
64362;BME280;50685;53.346;-6.296;2023-02-26T07:19:24;102834.88;;;5.94;59.57
64362;BME280;50685;53.346;-6.296;2023-02-26T07:21:50;102841.97;;;5.95;59.73
64362;BME280;50685;53.346;-6.296;2023-02-26T07:24:22;102839.25;;;5.93;59.87
64362;BME280;50685;53.346;-6.296;2023-02-26T07:26:48;102845.41;;;5.94;59.83
64362;BME280;50685;53.346;-6.296;2023-02-26T07:29:13;102849.72;;;5.92;59.83
64362;BME280;50685;53.346;-6.296;2023-02-26T07:31:39;102866.44;;;5.92;60.14
64362;BME280;50685;53.346;-6.296;2023-02-26T07:34:04;102871.75;;;5.94;60.02
64362;BME280;50685;53.346;-6.296;2023-02-26T07:36:29;102864.75;;;5.94;60.11
64362;BME280;50685;53.346;-6.296;2023-02-26T07:38:55;102869.19;;;5.95;60.07
64362;BME280;50685;53.346;-6.296;2023-02-26T07:43:52;102868.34;;;5.97;60.77
64362;BME280;50685;53.346;-6.296;2023-02-26T07:46:17;102874.44;;;5.95;61.11
64362;BME280;50685;53.346;-6.296;2023-02-26T07:48:44;102875.28;;;5.94;61.67
64362;BME280;50685;53.346;-6.296;2023-02-26T07:51:09;102875.38;;;5.96;62.04
64362;BME280;50685;53.346;-6.296;2023-02-26T07:53:35;102887.66;;;5.97;63.05
64362;BME280;50685;53.346;-6.296;2023-02-26T07:56:01;102896.47;;;5.98;63.33
64362;BME280;50685;53.346;-6.296;2023-02-26T07:58:26;102899.13;;;5.98;63.77
64362;BME280;50685;53.346;-6.296;2023-02-26T08:00:52;102894.53;;;5.93;63.65
64362;BME280;50685;53.346;-6.296;2023-02-26T08:03:18;102899.22;;;5.99;62.79
64362;BME280;50685;53.346;-6.296;2023-02-26T08:05:43;102902.72;;;6.00;62.66
64362;BME280;50685;53.346;-6.296;2023-02-26T08:08:10;102894.00;;;6.01;62.54
64362;BME280;50685;53.346;-6.296;2023-02-26T08:10:35;102899.22;;;5.99;61.65
64362;BME280;50685;53.346;-6.296;2023-02-26T08:13:01;102904.53;;;6.01;60.35
64362;BME280;50685;53.346;-6.296;2023-02-26T08:15:26;102903.66;;;6.00;59.12
64362;BME280;50685;53.346;-6.296;2023-02-26T08:17:51;102922.19;;;6.03;58.71
64362;BME280;50685;53.346;-6.296;2023-02-26T08:20:17;102920.56;;;6.07;58.91
64362;BME280;50685;53.346;-6.296;2023-02-26T08:22:46;102921.59;;;6.10;59.15
64362;BME280;50685;53.346;-6.296;2023-02-26T08:25:12;102933.22;;;6.16;59.57
64362;BME280;50685;53.346;-6.296;2023-02-26T08:27:50;102940.22;;;6.15;60.09
64362;BME280;50685;53.346;-6.296;2023-02-26T08:30:15;102948.19;;;6.17;59.72
64362;BME280;50685;53.346;-6.296;2023-02-26T08:32:43;102949.22;;;6.20;59.45
64362;BME280;50685;53.346;-6.296;2023-02-26T08:35:10;102945.81;;;6.23;59.71
64362;BME280;50685;53.346;-6.296;2023-02-26T08:37:38;102940.66;;;6.26;59.40
64362;BME280;50685;53.346;-6.296;2023-02-26T08:40:05;102947.75;;;6.27;59.67
64362;BME280;50685;53.346;-6.296;2023-02-26T08:42:30;102946.00;;;6.27;59.53
64362;BME280;50685;53.346;-6.296;2023-02-26T08:44:56;102957.44;;;6.28;59.89
64362;BME280;50685;53.346;-6.296;2023-02-26T08:49:58;102965.34;;;6.28;59.85
64362;BME280;50685;53.346;-6.296;2023-02-26T09:08:00;102980.31;;;6.29;61.87
64362;BME280;50685;53.346;-6.296;2023-02-26T09:13:48;102968.09;;;6.31;60.48
64362;BME280;50685;53.346;-6.296;2023-02-26T09:19:48;102976.44;;;6.42;60.55
64362;BME280;50685;53.346;-6.296;2023-02-26T09:25:59;102985.72;;;6.55;61.05
64362;BME280;50685;53.346;-6.296;2023-02-26T09:53:31;103014.38;;;6.91;57.62
64362;BME280;50685;53.346;-6.296;2023-02-26T10:20:48;103065.44;;;6.93;60.51
64362;BME280;50685;53.346;-6.296;2023-02-26T10:29:43;103079.00;;;7.02;61.03
64362;BME280;50685;53.346;-6.296;2023-02-26T10:39:18;103088.34;;;7.17;61.42
64362;BME280;50685;53.346;-6.296;2023-02-26T10:59:12;103095.88;;;8.03;58.38
64362;BME280;50685;53.346;-6.296;2023-02-26T11:26:16;103098.00;;;8.13;56.75
64362;BME280;50685;53.346;-6.296;2023-02-26T11:28:46;103111.91;;;8.08;57.20
64362;BME280;50685;53.346;-6.296;2023-02-26T11:31:14;103110.72;;;7.99;56.81
64362;BME280;50685;53.346;-6.296;2023-02-26T11:33:58;103116.38;;;7.84;56.93
64362;BME280;50685;53.346;-6.296;2023-02-26T11:42:03;103111.97;;;7.85;58.22
64362;BME280;50685;53.346;-6.296;2023-02-26T11:47:28;103115.63;;;7.88;58.60
64362;BME280;50685;53.346;-6.296;2023-02-26T11:59:24;103115.22;;;8.28;57.54
64362;BME280;50685;53.346;-6.296;2023-02-26T12:05:28;103109.84;;;8.25;56.96
64362;BME280;50685;53.346;-6.296;2023-02-26T12:21:16;103099.38;;;9.10;54.38
64362;BME280;50685;53.346;-6.296;2023-02-26T12:50:56;103111.47;;;9.02;54.20
64362;BME280;50685;53.346;-6.296;2023-02-26T13:06:32;103093.50;;;10.15;50.05
64362;BME280;50685;53.346;-6.296;2023-02-26T13:19:52;103092.72;;;11.32;49.04
64362;BME280;50685;53.346;-6.296;2023-02-26T13:22:28;103090.63;;;11.56;48.50
64362;BME280;50685;53.346;-6.296;2023-02-26T13:25:18;103096.19;;;11.70;47.35
64362;BME280;50685;53.346;-6.296;2023-02-26T13:27:49;103084.56;;;12.10;46.65
64362;BME280;50685;53.346;-6.296;2023-02-26T13:32:55;103090.56;;;12.50;45.28
64362;BME280;50685;53.346;-6.296;2023-02-26T13:35:23;103089.25;;;12.25;45.05
64362;BME280;50685;53.346;-6.296;2023-02-26T13:37:53;103085.22;;;11.98;46.91
64362;BME280;50685;53.346;-6.296;2023-02-26T13:48:58;103085.81;;;10.25;51.99
64362;BME280;50685;53.346;-6.296;2023-02-26T13:51:32;103097.31;;;9.91;53.16
64362;BME280;50685;53.346;-6.296;2023-02-26T14:10:46;103106.22;;;9.32;55.23
64362;BME280;50685;53.346;-6.296;2023-02-26T14:22:00;103109.75;;;8.75;55.63
64362;BME280;50685;53.346;-6.296;2023-02-26T14:35:40;103104.34;;;9.58;52.66
64362;BME280;50685;53.346;-6.296;2023-02-26T14:48:11;103092.25;;;10.70;50.31
64362;BME280;50685;53.346;-6.296;2023-02-26T15:17:43;103098.13;;;11.35;45.78
64362;BME280;50685;53.346;-6.296;2023-02-26T15:20:17;103099.88;;;11.34;44.49
64362;BME280;50685;53.346;-6.296;2023-02-26T15:40:32;103106.31;;;10.31;49.41
64362;BME280;50685;53.346;-6.296;2023-02-26T15:45:39;103113.03;;;9.85;50.75
64362;BME280;50685;53.346;-6.296;2023-02-26T15:48:29;103116.22;;;9.42;52.74
64362;BME280;50685;53.346;-6.296;2023-02-26T15:50:58;103118.34;;;9.24;52.80
64362;BME280;50685;53.346;-6.296;2023-02-26T15:53:37;103108.97;;;9.06;52.92
64362;BME280;50685;53.346;-6.296;2023-02-26T15:56:12;103117.47;;;8.96;52.74
64362;BME280;50685;53.346;-6.296;2023-02-26T15:58:43;103117.19;;;8.87;53.00
64362;BME280;50685;53.346;-6.296;2023-02-26T16:01:16;103119.03;;;8.89;52.77
64362;BME280;50685;53.346;-6.296;2023-02-26T16:03:52;103117.88;;;8.81;53.15
64362;BME280;50685;53.346;-6.296;2023-02-26T16:06:23;103109.59;;;8.70;53.19
64362;BME280;50685;53.346;-6.296;2023-02-26T16:08:55;103123.97;;;8.51;53.88
64362;BME280;50685;53.346;-6.296;2023-02-26T16:11:22;103122.34;;;8.55;53.68
64362;BME280;50685;53.346;-6.296;2023-02-26T16:16:21;103128.84;;;8.64;53.17
64362;BME280;50685;53.346;-6.296;2023-02-26T16:18:48;103125.75;;;8.78;52.74
64362;BME280;50685;53.346;-6.296;2023-02-26T16:21:18;103127.38;;;9.02;52.57
64362;BME280;50685;53.346;-6.296;2023-02-26T16:23:47;103128.75;;;9.18;51.82
64362;BME280;50685;53.346;-6.296;2023-02-26T16:26:19;103126.13;;;9.19;51.80
64362;BME280;50685;53.346;-6.296;2023-02-26T16:28:50;103114.06;;;9.29;51.57
64362;BME280;50685;53.346;-6.296;2023-02-26T16:31:23;103117.41;;;9.52;51.28
64362;BME280;50685;53.346;-6.296;2023-02-26T16:33:55;103122.78;;;9.54;51.14
64362;BME280;50685;53.346;-6.296;2023-02-26T16:41:27;103120.84;;;9.19;51.26
64362;BME280;50685;53.346;-6.296;2023-02-26T16:43:54;103128.13;;;8.97;52.35
64362;BME280;50685;53.346;-6.296;2023-02-26T16:51:40;103137.28;;;8.54;53.82
64362;BME280;50685;53.346;-6.296;2023-02-26T16:59:23;103136.00;;;8.17;55.49
64362;BME280;50685;53.346;-6.296;2023-02-26T17:04:19;103141.56;;;7.99;56.53
64362;BME280;50685;53.346;-6.296;2023-02-26T17:06:46;103145.53;;;7.87;57.09
64362;BME280;50685;53.346;-6.296;2023-02-26T17:11:41;103139.00;;;7.78;57.99
64362;BME280;50685;53.346;-6.296;2023-02-26T17:16:36;103151.28;;;7.76;57.92
64362;BME280;50685;53.346;-6.296;2023-02-26T17:31:33;103148.69;;;7.77;59.11
64362;BME280;50685;53.346;-6.296;2023-02-26T17:33:58;103145.06;;;7.75;59.92
64362;BME280;50685;53.346;-6.296;2023-02-26T17:36:24;103151.31;;;7.77;59.89
64362;BME280;50685;53.346;-6.296;2023-02-26T17:38:50;103154.81;;;7.76;60.25
64362;BME280;50685;53.346;-6.296;2023-02-26T17:41:18;103158.09;;;7.70;60.48
64362;BME280;50685;53.346;-6.296;2023-02-26T17:43:47;103163.38;;;7.70;60.78
64362;BME280;50685;53.346;-6.296;2023-02-26T17:46:13;103164.91;;;7.64;60.65
64362;BME280;50685;53.346;-6.296;2023-02-26T17:48:39;103160.28;;;7.58;60.24
64362;BME280;50685;53.346;-6.296;2023-02-26T17:51:05;103161.16;;;7.57;60.13
64362;BME280;50685;53.346;-6.296;2023-02-26T17:53:31;103162.94;;;7.58;59.91
64362;BME280;50685;53.346;-6.296;2023-02-26T17:56:10;103165.47;;;7.55;60.47
64362;BME280;50685;53.346;-6.296;2023-02-26T17:58:37;103164.63;;;7.56;61.08
64362;BME280;50685;53.346;-6.296;2023-02-26T18:01:02;103165.34;;;7.52;61.77
64362;BME280;50685;53.346;-6.296;2023-02-26T18:03:28;103163.53;;;7.51;61.45
64362;BME280;50685;53.346;-6.296;2023-02-26T18:30:28;103161.91;;;7.09;63.24
64362;BME280;50685;53.346;-6.296;2023-02-26T18:39:12;103160.88;;;6.83;64.55
64362;BME280;50685;53.346;-6.296;2023-02-26T18:41:39;103175.72;;;6.81;65.36
64362;BME280;50685;53.346;-6.296;2023-02-26T18:44:04;103173.09;;;6.81;65.09
64362;BME280;50685;53.346;-6.296;2023-02-26T18:46:30;103178.31;;;6.79;64.93
64362;BME280;50685;53.346;-6.296;2023-02-26T18:48:58;103176.44;;;6.77;65.17
64362;BME280;50685;53.346;-6.296;2023-02-26T18:51:25;103174.63;;;6.75;65.52
64362;BME280;50685;53.346;-6.296;2023-02-26T18:53:50;103185.06;;;6.72;65.93
64362;BME280;50685;53.346;-6.296;2023-02-26T18:56:16;103187.63;;;6.71;65.60
64362;BME280;50685;53.346;-6.296;2023-02-26T18:58:41;103183.06;;;6.67;66.25
64362;BME280;50685;53.346;-6.296;2023-02-26T19:01:07;103196.97;;;6.63;66.51
64362;BME280;50685;53.346;-6.296;2023-02-26T19:03:32;103195.94;;;6.59;65.90
64362;BME280;50685;53.346;-6.296;2023-02-26T19:05:58;103194.91;;;6.55;67.24
64362;BME280;50685;53.346;-6.296;2023-02-26T19:08:24;103189.56;;;6.54;67.03
64362;BME280;50685;53.346;-6.296;2023-02-26T19:10:52;103197.41;;;6.52;68.02
64362;BME280;50685;53.346;-6.296;2023-02-26T19:13:18;103192.00;;;6.49;67.96
64362;BME280;50685;53.346;-6.296;2023-02-26T19:15:44;103196.34;;;6.49;68.08
64362;BME280;50685;53.346;-6.296;2023-02-26T19:18:17;103194.59;;;6.48;67.89
64362;BME280;50685;53.346;-6.296;2023-02-26T19:20:43;103197.13;;;6.46;68.37
64362;BME280;50685;53.346;-6.296;2023-02-26T19:23:08;103199.72;;;6.45;67.98
64362;BME280;50685;53.346;-6.296;2023-02-26T19:25:34;103197.06;;;6.45;67.93
64362;BME280;50685;53.346;-6.296;2023-02-26T19:30:35;103186.38;;;6.41;67.41
64362;BME280;50685;53.346;-6.296;2023-02-26T19:33:02;103195.28;;;6.43;67.97
64362;BME280;50685;53.346;-6.296;2023-02-26T19:35:27;103200.53;;;6.43;68.27
64362;BME280;50685;53.346;-6.296;2023-02-26T19:37:54;103197.84;;;6.42;68.39
64362;BME280;50685;53.346;-6.296;2023-02-26T19:40:19;103202.03;;;6.37;68.90
64362;BME280;50685;53.346;-6.296;2023-02-26T19:42:46;103198.47;;;6.36;68.61
64362;BME280;50685;53.346;-6.296;2023-02-26T19:45:13;103201.94;;;6.35;68.87
64362;BME280;50685;53.346;-6.296;2023-02-26T19:47:42;103199.25;;;6.34;68.76
64362;BME280;50685;53.346;-6.296;2023-02-26T19:50:12;103194.78;;;6.33;69.32
64362;BME280;50685;53.346;-6.296;2023-02-26T19:52:38;103196.41;;;6.29;69.73
64362;BME280;50685;53.346;-6.296;2023-02-26T19:55:04;103199.88;;;6.28;69.65
64362;BME280;50685;53.346;-6.296;2023-02-26T19:57:30;103198.91;;;6.26;69.34
64362;BME280;50685;53.346;-6.296;2023-02-26T19:59:56;103200.63;;;6.25;69.90
64362;BME280;50685;53.346;-6.296;2023-02-26T20:04:58;103198.75;;;6.23;68.83
64362;BME280;50685;53.346;-6.296;2023-02-26T20:27:49;103220.00;;;6.26;68.40
64362;BME280;50685;53.346;-6.296;2023-02-26T20:48:07;103220.88;;;6.26;69.29
64362;BME280;50685;53.346;-6.296;2023-02-26T20:50:33;103222.75;;;6.29;69.28
64362;BME280;50685;53.346;-6.296;2023-02-26T20:53:01;103229.88;;;6.32;69.20
64362;BME280;50685;53.346;-6.296;2023-02-26T20:55:27;103229.06;;;6.33;69.25
64362;BME280;50685;53.346;-6.296;2023-02-26T21:00:31;103237.88;;;6.33;70.15
64362;BME280;50685;53.346;-6.296;2023-02-26T21:05:31;103242.44;;;6.37;69.57
64362;BME280;50685;53.346;-6.296;2023-02-26T21:13:23;103244.19;;;6.37;70.20
64362;BME280;50685;53.346;-6.296;2023-02-26T21:16:17;103252.22;;;6.40;70.61
64362;BME280;50685;53.346;-6.296;2023-02-26T21:18:42;103247.94;;;6.42;70.57
64362;BME280;50685;53.346;-6.296;2023-02-26T21:21:08;103252.44;;;6.45;70.54
64362;BME280;50685;53.346;-6.296;2023-02-26T21:23:33;103244.47;;;6.43;70.75
64362;BME280;50685;53.346;-6.296;2023-02-26T21:26:02;103251.28;;;6.38;71.23
64362;BME280;50685;53.346;-6.296;2023-02-26T21:28:27;103253.91;;;6.38;71.17
64362;BME280;50685;53.346;-6.296;2023-02-26T21:30:53;103256.41;;;6.35;70.86
64362;BME280;50685;53.346;-6.296;2023-02-26T21:33:18;103263.41;;;6.34;70.72
64362;BME280;50685;53.346;-6.296;2023-02-26T21:35:47;103259.78;;;6.32;70.60
64362;BME280;50685;53.346;-6.296;2023-02-26T21:38:13;103257.22;;;6.34;70.81
64362;BME280;50685;53.346;-6.296;2023-02-26T21:43:13;103266.72;;;6.30;71.13
64362;BME280;50685;53.346;-6.296;2023-02-26T21:45:39;103269.34;;;6.30;71.64
64362;BME280;50685;53.346;-6.296;2023-02-26T21:48:05;103271.03;;;6.28;72.03
64362;BME280;50685;53.346;-6.296;2023-02-26T21:50:31;103270.13;;;6.27;72.36
64362;BME280;50685;53.346;-6.296;2023-02-26T21:53:01;103270.13;;;6.27;71.57
64362;BME280;50685;53.346;-6.296;2023-02-26T21:58:06;103263.25;;;6.31;70.94
64362;BME280;50685;53.346;-6.296;2023-02-26T22:00:34;103261.59;;;6.33;70.86
64362;BME280;50685;53.346;-6.296;2023-02-26T22:03:00;103272.28;;;6.36;70.05
64362;BME280;50685;53.346;-6.296;2023-02-26T22:05:26;103276.72;;;6.37;68.88
64362;BME280;50685;53.346;-6.296;2023-02-26T22:08:04;103261.81;;;6.38;67.64
64362;BME280;50685;53.346;-6.296;2023-02-26T22:10:33;103252.09;;;6.37;66.73
64362;BME280;50685;53.346;-6.296;2023-02-26T22:32:30;103253.44;;;6.68;66.25